ESPE

Vidsel Air Base Airport

Vidsel, Sweden
METAR ESPE 160050Z AUTO 00000KT 9999 NCD M29/M31 Q1030
Observed Flight Rules
Dec-16 @ 00:50 UTC (38 minutes ago) Visual Flight Rules
Visibility Clouds
10,000+ meters
  • Clear skies
Temperatures Readings
Current -29°C / -20°F
Dewpoint -31°C / -24°F
Humidity 83%
Altimeter 30.41" Hg
Pressure 1030 hPa
Elevation 182
METAR ESPE 160050Z AUTO 00000KT 9999 NCD M29/M31 Q1030
Observed Flight Rules
Dec-16 @ 00:50 UTC
(38 minutes ago)
VFR
Clouds
  • Clear skies
Temperature Dewpoint
-29°C / -20°F -31°C / -24°F
Humidity Altimeter Pressure
83% 30.41" Hg 1030 hPa